logo
Rechercher aéroport 
image banner adimage banner adimage banner ad
image banner ad

KBAB - Beale Afb

Situé à Marysville, United States

ICAO - BAB, IATA - BAB

Données fournies par Airmate  

Information générale

Coordonnées: N39°8'10" W121°26'12"
Élévation : 112 feet MSL.
Variation magnétique : 16° East
Voir autres Aéroports à California

Données opérationnelles

Special qualification required
Heure actuelle UTC:
Heure actuelle locale:
Météo
METAR: KBAB 281056Z 11007KT 10SM CLR 16/10 A2992 RMK AO2A SLPN132 SLP ESTMD T01600099 $
TAF: TAF KBAB 281100Z 2811/2917 VRB06KT 9999 SKC QNH2993INS BECMG 2817/2818 18006KT 9999 SKC QNH3000INS WND VRB06KT AFT 2906 TX30/2900Z TN14/2815Z
Voir NOTAMs / SUP AIP / TFR affectant cet aéroport [VIEW]
Fréquences de communication: [VIEW]

Pistes:

Identifiant RWYQFULongueur (ft)Largeur (ft)SurfaceLDA (ft)
15162°12001300CONC
33342°12001300CONC

Coordonnées de l'aéroport

Adresse: Marysville United States

Autres services d'aviation

Écoles de pilotage

Beale Aero Club & Flight Training Center

Beale Aero Club & Flight Training Center

Vue satellite de KBAB